Time;durP1;ratioP1;P1;durP2;ratioP2;P2;SDS_P1;SDS_P2;PMS_P1;PMS_P2;Temp;Humidity;BMP_temperature;BMP_pressure;BME280_temperature;BME280_humidity;BME280_pressure;Samples;Min_cycle;Max_cycle;Signal;HPM_P1;HPM_P2
2023/05/30 00:03:39;;;;;;;20.60;3.08;;;11.20;99.90;;;;;;12434120;28;20506;-36
2023/05/30 00:09:41;;;;;;;19.48;3.10;;;11.30;99.90;;;;;;12439677;28;20129;-37
2023/05/30 00:15:44;;;;;;;28.90;3.22;;;11.10;99.90;;;;;;12438472;28;20041;-37
2023/05/30 00:21:47;;;;;;;18.30;4.20;;;10.90;99.90;;;;;;12436117;28;20045;-37
2023/05/30 00:27:50;;;;;;;19.67;2.95;;;11.00;99.90;;;;;;12446008;28;20072;-37
2023/05/30 00:33:52;;;;;;;22.40;3.17;;;11.10;99.90;;;;;;12450100;28;20081;-36
2023/05/30 00:39:54;;;;;;;18.98;3.05;;;11.00;99.90;;;;;;12445931;28;20084;-36
2023/05/30 00:45:56;;;;;;;16.88;2.75;;;10.90;99.90;;;;;;12454109;28;20045;-36
2023/05/30 00:51:58;;;;;;;15.85;3.75;;;11.00;99.90;;;;;;12446095;28;20042;-37
2023/05/30 00:58:00;;;;;;;18.13;3.35;;;10.80;99.90;;;;;;12440577;28;20053;-37
2023/05/30 01:04:02;;;;;;;17.55;3.58;;;10.70;99.90;;;;;;12433109;28;20045;-36
2023/05/30 01:10:05;;;;;;;26.85;3.47;;;10.80;99.90;;;;;;12438019;28;20517;-36
2023/05/30 01:16:14;;;;;;;17.38;2.88;;;10.80;99.90;;;;;;12433015;28;20152;-36
2023/05/30 01:22:28;;;;;;;18.48;2.92;;;10.60;99.90;;;;;;12444566;28;20422;-36
2023/05/30 01:28:33;;;;;;;21.55;3.50;;;10.60;99.90;;;;;;12455697;28;20505;-36
2023/05/30 01:34:35;;;;;;;18.00;2.90;;;10.70;99.90;;;;;;12444889;28;20529;-36
2023/05/30 01:40:38;;;;;;;23.25;3.70;;;11.00;99.90;;;;;;12480624;28;20060;-37
2023/05/30 01:46:50;;;;;;;14.80;3.25;;;10.70;99.90;;;;;;12444651;28;20065;-37
2023/05/30 01:52:58;;;;;;;20.40;3.50;;;10.70;99.90;;;;;;12441393;28;20053;-37
2023/05/30 01:59:03;;;;;;;18.23;3.97;;;10.80;99.90;;;;;;12460975;28;20061;-36
2023/05/30 02:05:05;;;;;;;16.27;3.15;;;11.20;99.90;;;;;;12444232;28;20042;-37
2023/05/30 02:11:08;;;;;;;14.90;3.30;;;11.20;99.90;;;;;;12438277;28;20057;-36
2023/05/30 02:17:12;;;;;;;14.45;3.00;;;11.20;99.90;;;;;;12443114;28;20129;-36
2023/05/30 02:23:16;;;;;;;14.48;2.83;;;11.20;99.90;;;;;;12447946;28;20050;-37
2023/05/30 02:29:18;;;;;;;19.35;3.47;;;11.00;99.90;;;;;;12474809;28;20112;-37
2023/05/30 02:35:20;;;;;;;13.48;2.53;;;11.10;99.90;;;;;;12439961;28;20417;-38
2023/05/30 02:41:26;;;;;;;19.15;3.50;;;11.10;99.90;;;;;;12441533;28;20486;-38
2023/05/30 02:47:28;;;;;;;18.80;3.25;;;10.90;99.90;;;;;;12449479;28;20486;-38
2023/05/30 02:53:31;;;;;;;22.00;3.15;;;10.90;99.90;;;;;;12442292;28;20423;-38
2023/05/30 02:59:33;;;;;;;12.07;3.00;;;10.90;99.90;;;;;;12441071;28;20057;-38
2023/05/30 03:05:35;;;;;;;19.13;2.97;;;11.10;99.90;;;;;;12447205;28;20038;-38
2023/05/30 03:11:39;;;;;;;12.38;3.10;;;11.20;99.90;;;;;;12437979;28;20071;-38
2023/05/30 03:17:42;;;;;;;13.07;2.72;;;11.20;99.90;;;;;;12444435;28;20057;-38
2023/05/30 03:23:44;;;;;;;14.35;3.55;;;11.20;99.90;;;;;;12442499;28;20042;-38
2023/05/30 03:29:45;;;;;;;16.38;3.38;;;11.00;99.90;;;;;;12440725;28;20422;-39
2023/05/30 03:35:47;;;;;;;17.55;3.47;;;10.70;99.90;;;;;;12439349;28;20054;-38
2023/05/30 03:41:49;;;;;;;13.85;2.90;;;10.90;99.90;;;;;;12444325;28;20050;-38
2023/05/30 03:47:51;;;;;;;16.00;3.17;;;10.90;99.90;;;;;;12444798;28;20406;-38
2023/05/30 03:53:53;;;;;;;17.30;3.45;;;11.00;99.90;;;;;;12428053;28;20056;-38
2023/05/30 03:59:55;;;;;;;16.23;3.10;;;10.90;99.90;;;;;;12436908;28;20046;-38
2023/05/30 04:05:58;;;;;;;16.30;3.28;;;11.00;99.90;;;;;;12428223;28;20037;-38
2023/05/30 04:12:01;;;;;;;20.13;3.25;;;11.00;99.90;;;;;;12468542;28;20114;-38
2023/05/30 04:18:03;;;;;;;11.98;2.97;;;10.90;99.90;;;;;;12439506;28;20057;-39
2023/05/30 04:24:07;;;;;;;16.98;3.70;;;10.80;99.90;;;;;;12437833;28;20042;-38
2023/05/30 04:30:10;;;;;;;12.13;3.25;;;11.00;99.90;;;;;;12441490;28;20050;-38
2023/05/30 04:36:18;;;;;;;16.73;3.17;;;10.90;99.90;;;;;;12452855;28;20065;-38
2023/05/30 04:42:33;;;;;;;13.07;3.30;;;10.90;99.90;;;;;;12448747;28;20049;-38
2023/05/30 04:48:36;;;;;;;14.20;3.88;;;10.80;99.90;;;;;;12446606;28;20061;-38
2023/05/30 04:54:38;;;;;;;17.67;3.85;;;10.90;99.90;;;;;;12446793;28;20053;-37
2023/05/30 05:00:40;;;;;;;14.50;3.45;;;10.90;99.90;;;;;;12449139;28;20050;-39
2023/05/30 05:06:42;;;;;;;11.88;3.22;;;11.00;99.90;;;;;;12441315;28;20413;-37
2023/05/30 05:12:44;;;;;;;13.10;3.65;;;10.80;99.90;;;;;;12447539;28;20045;-37
2023/05/30 05:18:46;;;;;;;10.10;3.40;;;10.90;99.90;;;;;;12441331;28;20132;-38
2023/05/30 05:24:48;;;;;;;15.93;4.07;;;10.90;99.90;;;;;;12460781;28;20494;-39
2023/05/30 05:30:50;;;;;;;10.00;3.10;;;11.10;99.90;;;;;;12444942;28;20061;-38
2023/05/30 05:36:52;;;;;;;13.63;3.72;;;11.10;99.90;;;;;;12445705;28;20544;-38
2023/05/30 05:43:01;;;;;;;7.65;3.28;;;11.30;99.90;;;;;;12444371;28;20085;-38
2023/05/30 05:49:03;;;;;;;14.32;3.65;;;11.40;99.90;;;;;;12445067;28;20050;-38
2023/05/30 05:55:05;;;;;;;13.95;3.92;;;11.40;99.90;;;;;;12460128;28;20057;-38
2023/05/30 06:01:07;;;;;;;18.95;4.38;;;11.30;99.90;;;;;;12440879;28;20061;-38
2023/05/30 06:07:09;;;;;;;11.85;3.83;;;11.40;99.90;;;;;;12441551;28;20085;-38
2023/05/30 06:13:11;;;;;;;17.10;4.57;;;11.50;99.90;;;;;;12446281;28;20050;-38
2023/05/30 06:19:12;;;;;;;17.83;4.38;;;11.70;99.90;;;;;;12446534;28;20053;-38
2023/05/30 06:25:15;;;;;;;15.27;4.60;;;11.80;99.90;;;;;;12443417;28;20046;-38
2023/05/30 06:31:21;;;;;;;11.77;4.25;;;11.90;99.90;;;;;;12442827;28;20046;-37
2023/05/30 06:37:23;;;;;;;15.73;4.93;;;11.90;99.90;;;;;;12440074;28;20042;-38
2023/05/30 06:43:25;;;;;;;10.68;4.25;;;11.80;99.90;;;;;;12478106;28;20048;-38
2023/05/30 06:49:27;;;;;;;17.75;5.13;;;11.80;99.90;;;;;;12448799;28;20062;-38
2023/05/30 06:55:28;;;;;;;17.30;4.20;;;11.90;99.90;;;;;;12438208;28;20038;-38
2023/05/30 07:01:30;;;;;;;18.67;4.82;;;12.10;99.90;;;;;;12431639;28;20068;-38
2023/05/30 07:07:32;;;;;;;15.55;4.35;;;11.90;99.90;;;;;;12436311;28;20045;-39
2023/05/30 07:13:34;;;;;;;14.02;3.92;;;12.10;99.90;;;;;;12435756;28;20049;-37
2023/05/30 07:19:36;;;;;;;13.45;3.58;;;12.10;99.90;;;;;;12440673;28;20052;-38
2023/05/30 07:25:38;;;;;;;10.70;3.88;;;11.90;99.90;;;;;;12437902;28;20042;-39
2023/05/30 07:31:40;;;;;;;10.32;4.05;;;12.20;99.90;;;;;;12439262;28;20041;-38
2023/05/30 07:37:42;;;;;;;12.20;4.45;;;12.30;99.90;;;;;;12438816;28;20046;-38
2023/05/30 07:43:44;;;;;;;16.52;4.15;;;12.40;99.90;;;;;;12469270;28;20284;-38
2023/05/30 07:49:46;;;;;;;11.40;3.85;;;12.30;99.90;;;;;;12457476;28;20045;-38
2023/05/30 07:55:48;;;;;;;11.25;4.00;;;12.40;99.90;;;;;;12436132;28;20042;-39
2023/05/30 08:01:50;;;;;;;12.75;3.70;;;13.00;99.90;;;;;;12440843;28;20052;-39
2023/05/30 08:07:52;;;;;;;12.30;3.33;;;13.20;99.90;;;;;;12444080;28;20045;-38
2023/05/30 08:13:55;;;;;;;9.95;3.33;;;13.30;99.90;;;;;;12440442;28;20050;-38
2023/05/30 08:19:57;;;;;;;13.10;3.65;;;13.20;99.90;;;;;;12454727;28;20046;-39
2023/05/30 08:25:58;;;;;;;13.10;3.28;;;13.10;99.90;;;;;;12452489;28;21206;-38
2023/05/30 08:32:00;;;;;;;14.30;3.58;;;13.40;99.90;;;;;;12452871;28;20053;-38
2023/05/30 08:38:03;;;;;;;8.73;3.42;;;13.50;99.90;;;;;;12453425;28;20046;-38
2023/05/30 08:44:05;;;;;;;14.35;3.83;;;14.00;99.90;;;;;;12452718;28;20046;-38
2023/05/30 08:50:07;;;;;;;11.07;3.92;;;13.60;99.90;;;;;;12461480;28;20045;-38
2023/05/30 08:56:12;;;;;;;10.93;3.55;;;13.80;99.90;;;;;;12426601;28;20088;-39
2023/05/30 09:02:18;;;;;;;8.70;4.05;;;13.90;99.90;;;;;;12435731;28;20458;-38
2023/05/30 09:08:25;;;;;;;11.70;3.97;;;14.00;99.90;;;;;;12474024;28;20054;-38
2023/05/30 09:14:27;;;;;;;13.93;3.67;;;14.40;99.90;;;;;;12435604;28;20045;-38
2023/05/30 09:20:31;;;;;;;9.82;4.20;;;14.90;99.90;;;;;;12439383;28;20104;-38
2023/05/30 09:26:33;;;;;;;;;;;15.10;99.90;;;;;;12432354;28;20490;-38
2023/05/30 09:32:38;;;;;;;11.73;4.25;;;15.30;99.90;;;;;;12409649;28;19960;-39
2023/05/30 09:38:55;;;;;;;15.95;4.25;;;15.50;99.90;;;;;;12427118;28;20061;-38
2023/05/30 09:45:03;;;;;;;9.82;4.28;;;15.60;99.90;;;;;;12425761;28;20037;-39
2023/05/30 09:51:05;;;;;;;12.88;4.30;;;15.20;99.90;;;;;;12421236;28;20049;-38
2023/05/30 09:57:07;;;;;;;11.75;4.85;;;15.20;99.90;;;;;;12430627;28;20042;-39
2023/05/30 10:03:09;;;;;;;16.67;5.63;;;15.80;99.90;;;;;;12429577;28;20053;-38
2023/05/30 10:09:12;;;;;;;10.48;5.40;;;15.70;99.90;;;;;;12434930;28;20112;-38
2023/05/30 10:15:14;;;;;;;13.40;5.57;;;15.50;99.90;;;;;;12416503;28;20049;-38
2023/05/30 10:21:20;;;;;;;11.95;5.85;;;15.70;99.90;;;;;;12423085;28;20089;-38
2023/05/30 10:27:30;;;;;;;14.52;5.63;;;16.20;99.90;;;;;;12418565;28;20061;-38
2023/05/30 10:33:36;;;;;;;11.60;5.40;;;16.20;99.90;;;;;;12430844;28;20050;-38
2023/05/30 10:40:44;;;;;;;9.27;4.53;;;16.70;99.90;;;;;;12417840;28;20592;-38
2023/05/30 10:47:32;;;;;;;12.85;5.43;;;16.90;99.90;;;;;;12416094;28;20041;-38
2023/05/30 10:53:44;;;;;;;12.98;5.15;;;16.60;99.90;;;;;;12435173;28;20045;-38
2023/05/30 10:59:46;;;;;;;12.65;5.82;;;16.10;99.90;;;;;;12425155;28;20099;-38
2023/05/30 11:05:55;;;;;;;14.07;5.47;;;16.10;99.90;;;;;;12442580;28;20046;-38
2023/05/30 11:12:00;;;;;;;9.07;4.20;;;16.70;99.90;;;;;;12415807;28;20517;-38
2023/05/30 11:18:17;;;;;;;9.02;3.80;;;16.80;99.90;;;;;;12432433;28;20060;-38
2023/05/30 11:24:22;;;;;;;10.35;4.10;;;16.30;99.90;;;;;;12418059;28;20070;-38
2023/05/30 11:30:24;;;;;;;6.97;4.22;;;15.80;99.90;;;;;;12413244;28;20041;-40
2023/05/30 11:36:27;;;;;;;8.02;3.88;;;16.10;99.90;;;;;;12422250;28;20410;-38
2023/05/30 11:42:30;;;;;;;7.95;3.20;;;16.30;99.90;;;;;;12420105;28;20057;-39
2023/05/30 11:48:32;;;;;;;7.18;3.17;;;16.40;99.90;;;;;;12414938;28;20046;-38
2023/05/30 11:54:34;;;;;;;7.38;2.53;;;16.30;99.90;;;;;;12426668;28;20666;-38
2023/05/30 12:00:39;;;;;;;5.10;2.25;;;16.50;99.90;;;;;;12415285;28;20049;-38
2023/05/30 12:06:45;;;;;;;6.72;2.15;;;16.00;99.90;;;;;;12416421;28;20410;-38
2023/05/30 12:12:47;;;;;;;5.20;2.25;;;15.80;99.90;;;;;;12434838;28;20137;-38
2023/05/30 12:18:48;;;;;;;4.55;2.83;;;16.10;99.90;;;;;;12435180;28;20061;-38
2023/05/30 12:24:51;;;;;;;6.22;3.03;;;16.20;99.90;;;;;;12433351;28;20050;-39
2023/05/30 12:30:54;;;;;;;6.57;3.10;;;16.10;99.90;;;;;;12441077;28;20046;-38
2023/05/30 12:36:56;;;;;;;5.50;3.03;;;16.10;99.90;;;;;;12439942;28;20049;-38
2023/05/30 12:42:58;;;;;;;7.72;3.50;;;16.60;99.90;;;;;;12436729;28;20216;-38
2023/05/30 12:49:00;;;;;;;6.03;3.03;;;16.30;99.90;;;;;;12431632;28;20479;-38
2023/05/30 12:55:03;;;;;;;6.72;3.80;;;16.00;99.90;;;;;;12440635;28;20522;-38
2023/05/30 13:01:05;;;;;;;6.78;3.78;;;15.60;99.90;;;;;;12441611;28;20062;-38
2023/05/30 13:07:12;;;;;;;7.90;3.88;;;15.60;99.90;;;;;;12438388;28;20104;-39
2023/05/30 13:13:14;;;;;;;6.38;3.60;;;15.30;99.90;;;;;;12430672;28;20058;-36
2023/05/30 13:19:18;;;;;;;9.57;3.60;;;15.60;99.90;;;;;;12439700;28;20050;-37
2023/05/30 13:25:20;;;;;;;7.80;3.58;;;15.60;99.90;;;;;;12446388;28;20038;-36
2023/05/30 13:31:23;;;;;;;8.13;4.85;;;15.50;99.90;;;;;;12445371;28;20072;-37
2023/05/30 13:37:25;;;;;;;10.43;5.47;;;15.50;99.90;;;;;;12440131;28;20123;-37
2023/05/30 13:43:30;;;;;;;16.58;8.20;;;15.40;99.90;;;;;;12450344;28;20057;-36
2023/05/30 13:49:37;;;;;;;14.90;6.70;;;15.00;99.90;;;;;;12446493;28;20092;-37
2023/05/30 13:55:39;;;;;;;12.10;8.15;;;15.20;99.90;;;;;;12441765;28;20384;-37
2023/05/30 14:01:41;;;;;;;14.05;8.85;;;14.90;99.90;;;;;;12439887;28;20050;-37
2023/05/30 14:07:44;;;;;;;13.45;8.05;;;14.80;99.90;;;;;;12440257;28;20053;-37
2023/05/30 14:13:48;;;;;;;13.27;7.85;;;14.50;99.90;;;;;;12436114;28;20592;-37
2023/05/30 14:19:50;;;;;;;;;;;14.60;99.90;;;;;;12439602;28;20085;-37
2023/05/30 14:25:52;;;;;;;17.70;11.30;;;14.90;99.90;;;;;;12442625;28;20289;-37
2023/05/30 14:31:55;;;;;;;20.02;12.43;;;15.10;99.90;;;;;;12438599;28;20410;-37
2023/05/30 14:37:57;;;;;;;17.57;10.77;;;14.80;99.90;;;;;;12440733;28;20050;-37
2023/05/30 14:43:59;;;;;;;16.80;10.40;;;14.90;99.90;;;;;;12444866;28;20053;-36
2023/05/30 14:50:03;;;;;;;20.65;11.63;;;14.90;99.90;;;;;;12452906;28;20183;-36
2023/05/30 14:56:05;;;;;;;;;;;14.80;99.90;;;;;;12440924;28;21132;-37
2023/05/30 15:02:08;;;;;;;17.45;11.98;;;15.00;99.90;;;;;;12438536;28;19921;-37
2023/05/30 15:08:10;;;;;;;21.40;12.63;;;15.00;99.90;;;;;;12427785;28;20085;-36
2023/05/30 15:14:13;;;;;;;15.77;11.25;;;15.10;99.90;;;;;;12441228;28;20085;-37
2023/05/30 15:20:15;;;;;;;18.63;11.55;;;15.10;99.90;;;;;;12443090;28;20054;-37
2023/05/30 15:26:17;;;;;;;16.75;11.77;;;15.20;99.90;;;;;;12435685;28;20133;-36
2023/05/30 15:32:18;;;;;;;17.50;11.48;;;15.30;99.90;;;;;;12444488;28;20045;-37
2023/05/30 15:38:20;;;;;;;17.20;11.50;;;15.20;99.90;;;;;;12435899;28;20049;-37
2023/05/30 15:44:22;;;;;;;17.00;11.40;;;14.80;99.90;;;;;;12439883;28;20166;-37
2023/05/30 15:50:25;;;;;;;17.85;11.00;;;14.90;99.90;;;;;;12438525;28;20050;-37
2023/05/30 15:56:27;;;;;;;12.38;8.82;;;15.00;99.90;;;;;;12435152;28;20049;-40
2023/05/30 16:02:29;;;;;;;10.73;7.60;;;15.00;99.90;;;;;;12434882;28;20053;-37
2023/05/30 16:08:31;;;;;;;11.02;7.75;;;14.60;99.90;;;;;;12435884;28;20072;-36
2023/05/30 16:14:33;;;;;;;11.15;7.25;;;14.70;99.90;;;;;;12447700;28;20498;-37
2023/05/30 16:20:37;;;;;;;8.95;5.97;;;14.70;99.90;;;;;;12447080;28;20046;-37
2023/05/30 16:26:40;;;;;;;;;;;15.20;99.90;;;;;;12441820;28;20061;-37
2023/05/30 16:32:44;;;;;;;8.00;4.05;;;15.10;99.90;;;;;;12449158;28;20301;-37
2023/05/30 16:38:46;;;;;;;5.80;3.85;;;15.00;99.90;;;;;;12471849;28;20486;-37
2023/05/30 16:44:48;;;;;;;4.50;3.50;;;15.30;99.90;;;;;;12443517;28;20042;-37
2023/05/30 16:50:50;;;;;;;5.93;3.47;;;15.10;99.90;;;;;;12458289;28;20050;-37
2023/05/30 16:56:52;;;;;;;5.78;3.45;;;15.40;99.90;;;;;;12454410;28;20061;-37
2023/05/30 17:02:54;;;;;;;6.10;3.25;;;15.10;99.90;;;;;;12444401;28;20585;-37
2023/05/30 17:08:56;;;;;;;6.32;2.90;;;15.30;99.90;;;;;;12442986;28;20057;-36
2023/05/30 17:14:59;;;;;;;6.28;3.25;;;15.30;99.90;;;;;;12453301;28;20053;-36
2023/05/30 17:21:02;;;;;;;5.50;2.80;;;15.30;99.90;;;;;;12455335;28;20518;-37
2023/05/30 17:27:04;;;;;;;4.67;2.57;;;15.50;99.90;;;;;;12448433;28;20050;-37
2023/05/30 17:33:07;;;;;;;7.72;2.63;;;16.30;99.90;;;;;;12460818;28;20091;-37
2023/05/30 17:39:10;;;;;;;4.55;2.33;;;15.70;99.90;;;;;;12464274;28;20033;-37
2023/05/30 17:45:12;;;;;;;5.15;2.65;;;15.80;99.90;;;;;;12457256;28;20053;-38
2023/05/30 17:51:15;;;;;;;9.65;2.50;;;15.80;99.90;;;;;;12451982;28;20081;-38
2023/05/30 17:57:17;;;;;;;4.95;2.70;;;16.10;99.90;;;;;;12452873;28;20046;-38
2023/05/30 18:03:20;;;;;;;7.03;2.22;;;15.90;99.90;;;;;;12443870;28;20050;-37
2023/05/30 18:09:22;;;;;;;4.40;2.80;;;15.70;99.90;;;;;;12454318;28;20054;-38
2023/05/30 18:15:25;;;;;;;6.90;2.60;;;15.40;99.90;;;;;;12453353;28;20038;-37
2023/05/30 18:21:30;;;;;;;5.10;2.30;;;15.30;99.90;;;;;;12461514;28;20121;-37
2023/05/30 18:27:31;;;;;;;;;;;15.30;99.90;;;;;;12450092;28;20485;-37
2023/05/30 18:33:33;;;;;;;4.65;2.35;;;15.10;99.90;;;;;;12444648;28;19932;-37
2023/05/30 18:39:36;;;;;;;5.63;2.50;;;15.10;99.90;;;;;;12450659;28;20049;-37
2023/05/30 18:45:38;;;;;;;4.07;2.25;;;15.10;99.90;;;;;;12438287;28;20085;-37
2023/05/30 18:51:40;;;;;;;5.30;2.40;;;15.00;99.90;;;;;;12450271;28;20038;-37
2023/05/30 18:57:42;;;;;;;7.70;2.45;;;14.90;99.90;;;;;;12446828;28;20521;-37
2023/05/30 19:03:44;;;;;;;4.78;2.15;;;14.70;99.90;;;;;;12442614;28;20498;-37
2023/05/30 19:09:46;;;;;;;4.88;2.30;;;14.80;99.90;;;;;;12441678;28;20457;-37
2023/05/30 19:15:49;;;;;;;2.88;1.83;;;14.70;99.90;;;;;;12445368;28;20037;-37
2023/05/30 19:21:53;;;;;;;6.03;1.90;;;14.40;99.90;;;;;;12438681;28;20042;-37
2023/05/30 19:28:04;;;;;;;;;;;14.50;99.90;;;;;;12453150;28;20049;-37
2023/05/30 19:34:06;;;;;;;4.28;2.17;;;14.50;99.90;;;;;;12475450;28;19926;-36
2023/05/30 19:40:09;;;;;;;4.28;2.15;;;14.20;99.90;;;;;;12456384;28;20050;-37
2023/05/30 19:46:10;;;;;;;6.57;3.10;;;13.90;99.90;;;;;;12447261;28;20045;-36
2023/05/30 19:52:13;;;;;;;3.40;2.40;;;13.70;99.90;;;;;;12442157;28;20049;-37
2023/05/30 19:58:17;;;;;;;3.33;2.20;;;13.50;99.90;;;;;;12441882;28;20521;-36
2023/05/30 20:04:23;;;;;;;2.58;2.00;;;13.40;99.90;;;;;;12444041;28;20064;-37
2023/05/30 20:10:25;;;;;;;3.85;1.98;;;13.40;99.90;;;;;;12445455;28;20391;-37
2023/05/30 20:16:27;;;;;;;6.18;2.22;;;13.40;99.90;;;;;;12431820;28;20089;-37
2023/05/30 20:22:29;;;;;;;8.85;2.20;;;13.40;99.90;;;;;;12441772;28;20045;-37
2023/05/30 20:28:31;;;;;;;4.70;2.47;;;13.30;99.90;;;;;;12443513;28;20053;-37
2023/05/30 20:34:32;;;;;;;4.97;2.70;;;13.30;99.90;;;;;;12450276;28;20046;-37
2023/05/30 20:40:36;;;;;;;3.58;2.03;;;13.40;99.90;;;;;;12436040;28;20099;-38
2023/05/30 20:46:38;;;;;;;3.53;2.20;;;13.60;99.90;;;;;;12439008;28;20547;-36
2023/05/30 20:52:42;;;;;;;4.13;2.42;;;13.50;99.90;;;;;;12442239;28;20504;-37
2023/05/30 20:58:45;;;;;;;4.70;2.60;;;13.20;99.90;;;;;;12472896;28;20525;-37
2023/05/30 21:04:47;;;;;;;4.25;2.70;;;13.10;99.90;;;;;;12440687;28;20184;-36
2023/05/30 21:10:55;;;;;;;5.53;3.53;;;13.00;99.90;;;;;;12436082;28;20089;-36
2023/05/30 21:16:57;;;;;;;7.22;3.65;;;12.80;99.90;;;;;;12437850;28;20053;-36
2023/05/30 21:22:59;;;;;;;5.95;3.20;;;12.70;99.90;;;;;;12454132;28;20050;-36
2023/05/30 21:29:02;;;;;;;6.30;3.67;;;12.70;99.90;;;;;;12451484;28;20406;-37
2023/05/30 21:35:05;;;;;;;6.13;4.53;;;12.70;99.90;;;;;;12448072;28;20050;-36
2023/05/30 21:41:07;;;;;;;5.68;3.45;;;12.70;99.90;;;;;;12453966;28;20482;-36
2023/05/30 21:47:09;;;;;;;5.50;3.85;;;12.60;99.90;;;;;;12451067;28;20430;-36
2023/05/30 21:53:12;;;;;;;9.45;5.25;;;12.50;99.90;;;;;;12448489;28;20061;-37
2023/05/30 21:59:14;;;;;;;7.35;4.60;;;12.40;99.90;;;;;;12450547;28;20058;-36
2023/05/30 22:05:16;;;;;;;7.68;4.28;;;12.50;99.90;;;;;;12446739;28;20101;-36
2023/05/30 22:11:18;;;;;;;7.97;4.80;;;12.40;99.90;;;;;;12433768;28;20120;-36
2023/05/30 22:17:20;;;;;;;6.40;4.70;;;12.40;99.90;;;;;;12441049;28;20042;-37
2023/05/30 22:23:22;;;;;;;7.97;4.78;;;12.40;99.90;;;;;;12459319;28;20058;-36
2023/05/30 22:29:24;;;;;;;7.95;4.95;;;12.50;99.90;;;;;;12439945;28;20133;-36
2023/05/30 22:35:26;;;;;;;9.05;5.72;;;12.30;99.90;;;;;;12449541;28;20156;-36
2023/05/30 22:41:28;;;;;;;8.85;5.95;;;12.30;99.90;;;;;;12443293;28;20404;-36
2023/05/30 22:47:30;;;;;;;11.40;6.93;;;12.20;99.90;;;;;;12439220;28;20050;-36
2023/05/30 22:53:32;;;;;;;9.93;6.75;;;12.20;99.90;;;;;;12437698;28;20057;-36
2023/05/30 22:59:34;;;;;;;12.38;6.85;;;12.20;99.90;;;;;;12438150;28;20491;-36
2023/05/30 23:05:36;;;;;;;14.38;6.68;;;12.20;99.90;;;;;;12433455;28;20037;-36
2023/05/30 23:11:38;;;;;;;12.38;7.20;;;12.20;99.90;;;;;;12448199;28;20037;-36
2023/05/30 23:17:40;;;;;;;11.52;6.95;;;12.10;99.90;;;;;;12428933;28;20046;-36
2023/05/30 23:23:42;;;;;;;9.65;6.82;;;12.00;99.90;;;;;;12438819;28;20049;-36
2023/05/30 23:29:44;;;;;;;10.80;6.93;;;12.10;99.90;;;;;;12434639;28;20050;-36
2023/05/30 23:35:46;;;;;;;10.82;7.05;;;12.00;99.90;;;;;;12437234;28;20065;-35
2023/05/30 23:41:48;;;;;;;12.98;7.80;;;12.00;99.90;;;;;;12442594;28;20042;-36
2023/05/30 23:47:50;;;;;;;11.35;7.28;;;11.90;99.90;;;;;;12436268;28;20064;-36
2023/05/30 23:53:55;;;;;;;14.75;8.35;;;11.90;99.90;;;;;;12439011;28;20080;-36
2023/05/30 23:59:57;;;;;;;13.75;8.63;;;11.80;99.90;;;;;;12437979;28;20058;-36
